Time,TemperatureF,DewpointF,PressureIn,WindDirection,WindDirectionDegrees,WindSpeedMPH,WindSpeedGustMPH,Humidity,HourlyPrecipIn,Conditions,Clouds,dailyrainin,SolarRadiationWatts/m^2,SoftwareType,DateUTC
2013-03-01 12:00:00,41.0,16.0,-100.00,WNW,303,2.0,5.0,36,-99.99,,,0.00,818.700012,,2013-03-01 19:00:00,
2013-03-01 12:52:00,41.0,16.0,-100.00,WNW,303,2.0,5.0,36,-99.99,,,0.00,818.700012,,2013-03-01 19:52:00,
2013-03-01 13:00:00,41.0,14.0,-100.00,WNW,284,3.0,7.0,33,-99.99,,,0.00,842.200012,,2013-03-01 20:00:00,
2013-03-01 13:52:00,41.0,14.0,-100.00,WNW,284,3.0,7.0,33,-99.99,,,0.00,842.200012,,2013-03-01 20:52:00,
2013-03-01 14:00:00,43.0,16.0,-100.00,WNW,285,3.0,6.0,33,-99.99,,,0.00,783.599976,,2013-03-01 21:00:00,
2013-03-01 14:52:00,43.0,16.0,-100.00,WNW,285,3.0,6.0,33,-99.99,,,0.00,783.599976,,2013-03-01 21:52:00,
2013-03-01 15:00:00,42.0,15.0,-100.00,WNW,283,2.0,6.0,33,-99.99,,,0.00,455.399994,,2013-03-01 22:00:00,
2013-03-01 15:52:00,42.0,15.0,-100.00,WNW,283,2.0,6.0,33,-99.99,,,0.00,455.399994,,2013-03-01 22:52:00,
2013-03-01 16:00:00,40.0,15.0,-100.00,WNW,287,2.0,5.0,35,-99.99,,,0.00,38.500000,,2013-03-01 23:00:00,
2013-03-01 16:52:00,40.0,15.0,-100.00,WNW,287,2.0,5.0,35,-99.99,,,0.00,38.500000,,2013-03-01 23:52:00,
2013-03-01 17:00:00,39.0,14.0,-100.00,West,272,2.0,5.0,36,-99.99,,,0.00,20.500000,,2013-03-02 00:00:00,
2013-03-01 17:52:00,39.0,14.0,-100.00,West,272,2.0,5.0,36,-99.99,,,0.00,20.500000,,2013-03-02 00:52:00,
2013-03-01 18:00:00,34.0,14.0,-100.00,WSW,237,1.0,3.0,44,-99.99,,,0.00,6.700000,,2013-03-02 01:00:00,
2013-03-01 18:52:00,34.0,14.0,-100.00,WSW,237,1.0,3.0,44,-99.99,,,0.00,6.700000,,2013-03-02 01:52:00,
2013-03-01 19:00:00,31.0,14.0,-100.00,South,185,1.0,3.0,50,-99.99,,,0.00,0.000000,,2013-03-02 02:00:00,
2013-03-01 19:52:00,31.0,14.0,-100.00,South,185,1.0,3.0,50,-99.99,,,0.00,0.000000,,2013-03-02 02:52:00,
2013-03-01 20:00:00,31.0,17.0,-100.00,SSW,206,1.0,3.0,56,-99.99,,,0.00,0.000000,,2013-03-02 03:00:00,
2013-03-01 20:52:00,31.0,17.0,-100.00,SSW,206,1.0,3.0,56,-99.99,,,0.00,0.000000,,2013-03-02 03:52:00,
2013-03-01 21:00:00,30.0,17.0,-100.00,SSE,163,1.0,3.0,57,-99.99,,,0.00,0.000000,,2013-03-02 04:00:00,
2013-03-01 21:52:00,30.0,17.0,-100.00,SSE,163,1.0,3.0,57,-99.99,,,0.00,0.000000,,2013-03-02 04:52:00,
2013-03-01 22:00:00,30.0,18.0,-100.00,SSE,164,1.0,2.0,62,-99.99,,,-99.99,0.000000,,2013-03-02 05:00:00,
2013-03-01 22:52:00,30.0,18.0,-100.00,SSE,164,1.0,2.0,62,-99.99,,,-99.99,0.000000,,2013-03-02 05:52:00,